Time;durP1;ratioP1;P1;durP2;ratioP2;P2;SDS_P1;SDS_P2;PMS_P1;PMS_P2;Temp;Humidity;BMP_temperature;BMP_pressure;BME280_temperature;BME280_humidity;BME280_pressure;Samples;Min_cycle;Max_cycle;Signal;HPM_P1;HPM_P2
2021/12/06 00:00:19;;;;;;;13.75;9.88;;;9.40;89.20;;;;;;5039066;28;20022;-81
2021/12/06 00:02:46;;;;;;;15.00;10.27;;;9.50;89.20;;;;;;5039297;28;20104;-81
2021/12/06 00:05:15;;;;;;;15.80;10.52;;;9.50;89.20;;;;;;5037631;28;20033;-80
2021/12/06 00:07:41;;;;;;;13.90;9.95;;;9.40;89.20;;;;;;5036996;28;20028;-79
2021/12/06 00:10:09;;;;;;;16.83;10.10;;;9.40;89.20;;;;;;5036956;28;20392;-80
2021/12/06 00:12:35;;;;;;;16.63;10.68;;;9.40;89.20;;;;;;5036823;28;20503;-80
2021/12/06 00:15:00;;;;;;;16.33;11.40;;;9.50;89.20;;;;;;5036598;28;20112;-80
2021/12/06 00:17:26;;;;;;;15.95;10.82;;;9.40;89.10;;;;;;5037037;28;20028;-81
2021/12/06 00:19:52;;;;;;;16.73;11.45;;;9.50;89.20;;;;;;5035976;28;20032;-79
2021/12/06 00:22:22;;;;;;;16.38;11.05;;;9.50;89.20;;;;;;5052857;28;20021;-80
2021/12/06 00:24:52;;;;;;;15.43;10.77;;;9.50;89.10;;;;;;5036178;28;20049;-80
2021/12/06 00:27:18;;;;;;;16.77;10.38;;;9.40;89.10;;;;;;5035958;28;20029;-79
2021/12/06 00:29:45;;;;;;;16.05;11.30;;;9.40;89.00;;;;;;5052486;28;20036;-81
2021/12/06 00:32:10;;;;;;;16.63;11.57;;;9.50;89.10;;;;;;5037271;28;20022;-81
2021/12/06 00:34:38;;;;;;;16.90;11.40;;;9.40;89.10;;;;;;5035471;28;20079;-80
2021/12/06 00:37:16;;;;;;;16.55;11.38;;;9.40;89.10;;;;;;5035632;28;20036;-80
2021/12/06 00:39:46;;;;;;;16.85;11.82;;;9.40;89.10;;;;;;5034863;28;20370;-80
2021/12/06 00:42:13;;;;;;;14.80;11.30;;;9.40;89.10;;;;;;5035262;28;20028;-80
2021/12/06 00:44:39;;;;;;;16.20;11.50;;;9.50;89.20;;;;;;5034698;28;20703;-79
2021/12/06 00:47:05;;;;;;;17.98;11.93;;;9.40;89.10;;;;;;5051197;28;20068;-80
2021/12/06 00:49:31;;;;;;;17.27;12.27;;;9.50;89.20;;;;;;5034658;28;20064;-79
2021/12/06 00:51:57;;;;;;;25.50;12.43;;;9.40;89.30;;;;;;5036102;28;20029;-79
2021/12/06 00:54:22;;;;;;;22.27;12.77;;;9.40;89.20;;;;;;5034793;28;20033;-81
2021/12/06 00:56:48;;;;;;;20.30;12.57;;;9.50;89.20;;;;;;5034458;28;20028;-79
2021/12/06 00:59:13;;;;;;;22.55;12.90;;;9.50;89.10;;;;;;5035833;28;20028;-80
2021/12/06 01:01:39;;;;;;;20.33;13.52;;;9.50;89.20;;;;;;5050385;28;20021;-79
2021/12/06 01:04:06;;;;;;;22.27;12.98;;;9.40;89.10;;;;;;5034663;28;20025;-79
2021/12/06 01:06:31;;;;;;;20.45;13.00;;;9.50;89.20;;;;;;5035166;28;20049;-80
2021/12/06 01:08:57;;;;;;;23.52;13.50;;;9.40;89.10;;;;;;5033595;28;20378;-80
2021/12/06 01:11:23;;;;;;;25.52;13.85;;;9.40;89.10;;;;;;5050343;28;20032;-79
2021/12/06 01:13:49;;;;;;;20.10;12.05;;;9.40;89.10;;;;;;5050070;28;20435;-79
2021/12/06 01:16:14;;;;;;;20.30;12.95;;;9.50;89.20;;;;;;5033752;28;20152;-79
2021/12/06 01:18:40;;;;;;;23.17;14.05;;;9.50;89.20;;;;;;5033295;28;20044;-79
2021/12/06 01:23:45;;;;;;;24.17;13.25;;;9.50;89.20;;;;;;5034792;28;20465;-79
2021/12/06 01:26:43;;;;;;;22.50;13.57;;;9.50;89.20;;;;;;5050046;28;20033;-79
2021/12/06 01:29:25;;;;;;;25.25;14.25;;;9.40;89.20;;;;;;5034160;28;20037;-79
2021/12/06 01:31:59;;;;;;;19.65;13.90;;;9.40;89.20;;;;;;5034554;28;20030;-79
2021/12/06 01:39:11;;;;;;;21.58;13.80;;;9.50;89.30;;;;;;5033932;28;20029;-79
2021/12/06 01:40:01;;;;;;;24.02;14.57;;;9.40;89.10;;;;;;5034131;28;20037;-79
2021/12/06 01:42:26;;;;;;;22.25;13.88;;;9.40;89.20;;;;;;5032735;28;20477;-79
2021/12/06 01:44:55;;;;;;;22.55;15.23;;;9.40;89.20;;;;;;5033916;28;20091;-81
2021/12/06 01:47:29;;;;;;;22.67;14.23;;;9.40;89.20;;;;;;5032138;28;20025;-79
2021/12/06 01:50:03;;;;;;;21.65;14.90;;;9.50;89.30;;;;;;5032754;28;20440;-81
2021/12/06 01:52:31;;;;;;;22.15;14.43;;;9.40;89.20;;;;;;5036378;28;20036;-80
2021/12/06 01:54:59;;;;;;;23.88;14.70;;;9.40;89.30;;;;;;5035468;28;20030;-80
2021/12/06 01:57:27;;;;;;;21.73;14.40;;;9.40;89.70;;;;;;5035516;28;20021;-81
2021/12/06 01:59:53;;;;;;;20.80;14.98;;;9.40;89.20;;;;;;5035024;28;20580;-80
2021/12/06 02:02:20;;;;;;;22.00;14.13;;;9.40;89.20;;;;;;5036403;28;20022;-80
2021/12/06 02:04:46;;;;;;;22.35;14.82;;;9.40;89.20;;;;;;5034926;28;20029;-80
2021/12/06 02:07:15;;;;;;;21.88;14.98;;;9.40;89.70;;;;;;5036042;28;20030;-81
2021/12/06 02:09:43;;;;;;;22.35;14.93;;;9.40;89.20;;;;;;5034392;28;20032;-80
2021/12/06 02:12:10;;;;;;;22.77;14.57;;;9.40;89.20;;;;;;5036005;28;20547;-80
2021/12/06 02:17:41;;;;;;;20.83;14.10;;;9.40;89.10;;;;;;4974702;28;20050;-79
2021/12/06 02:20:20;;;;;;;22.88;15.32;;;9.40;89.10;;;;;;5020411;28;20033;-80
2021/12/06 02:22:46;;;;;;;21.50;14.18;;;9.40;89.10;;;;;;5033943;28;20025;-80
2021/12/06 02:25:14;;;;;;;24.17;15.82;;;9.50;89.10;;;;;;5034217;28;20072;-81
2021/12/06 02:27:39;;;;;;;24.10;14.77;;;9.50;89.10;;;;;;5033854;28;20025;-80
2021/12/06 02:30:07;;;;;;;21.92;14.75;;;9.40;89.10;;;;;;5034528;28;20116;-79
2021/12/06 02:32:34;;;;;;;24.70;15.40;;;9.50;89.10;;;;;;5035231;28;20503;-79
2021/12/06 02:35:02;;;;;;;22.10;14.82;;;9.50;89.10;;;;;;5032913;28;20091;-79
2021/12/06 02:37:31;;;;;;;23.20;14.75;;;9.50;89.00;;;;;;5033275;28;20112;-79
2021/12/06 02:39:58;;;;;;;25.55;15.40;;;9.50;89.10;;;;;;5034512;28;20029;-79
2021/12/06 02:42:25;;;;;;;28.10;16.25;;;9.40;89.00;;;;;;5033111;28;20486;-80
2021/12/06 02:44:50;;;;;;;25.65;15.90;;;9.50;89.10;;;;;;5034406;28;20034;-80
2021/12/06 02:47:18;;;;;;;23.15;15.23;;;9.50;89.20;;;;;;5033905;28;20029;-80
2021/12/06 02:49:44;;;;;;;24.20;14.57;;;9.50;89.20;;;;;;5033831;28;20057;-80
2021/12/06 02:52:12;;;;;;;25.23;15.00;;;9.40;89.20;;;;;;5032928;28;20084;-79
2021/12/06 02:54:39;;;;;;;23.65;15.20;;;9.50;89.30;;;;;;5033722;28;20105;-80
2021/12/06 02:59:39;;;;;;;23.65;15.30;;;9.50;89.30;;;;;;5034229;28;20021;-79
2021/12/06 03:02:10;;;;;;;21.15;14.75;;;9.40;89.20;;;;;;5033822;28;20053;-81
2021/12/06 03:04:36;;;;;;;23.83;15.27;;;9.50;89.30;;;;;;5034031;28;20461;-79
2021/12/06 03:07:03;;;;;;;22.33;14.90;;;9.50;89.30;;;;;;5035029;28;20033;-80
2021/12/06 03:09:33;;;;;;;23.35;15.10;;;9.40;89.30;;;;;;5034535;28;20022;-81
2021/12/06 03:12:09;;;;;;;23.83;14.77;;;9.40;89.30;;;;;;5034688;28;20512;-80
2021/12/06 03:14:41;;;;;;;22.27;15.50;;;9.50;89.40;;;;;;5035574;28;20080;-80
2021/12/06 03:17:11;;;;;;;21.92;15.00;;;9.40;89.30;;;;;;5035625;28;20406;-79
2021/12/06 03:19:37;;;;;;;22.92;15.27;;;9.40;89.30;;;;;;5033862;28;20033;-79
2021/12/06 03:22:05;;;;;;;22.55;14.88;;;9.50;89.50;;;;;;5034069;28;20424;-80
2021/12/06 03:24:30;;;;;;;21.77;14.32;;;9.40;89.40;;;;;;5034081;28;20175;-79
2021/12/06 03:26:56;;;;;;;23.52;14.82;;;9.50;89.50;;;;;;5036695;28;20496;-80
2021/12/06 03:29:22;;;;;;;22.27;14.63;;;9.50;89.50;;;;;;5038514;28;20033;-80
2021/12/06 03:31:48;;;;;;;22.15;14.65;;;9.50;89.50;;;;;;5035171;28;20030;-81
2021/12/06 03:34:15;;;;;;;24.05;15.20;;;9.50;89.50;;;;;;5037271;28;20064;-80
2021/12/06 03:36:41;;;;;;;22.80;14.63;;;9.50;89.50;;;;;;5037224;28;20108;-80
2021/12/06 03:39:23;;;;;;;24.13;14.90;;;9.50;89.50;;;;;;5036779;28;20048;-79
2021/12/06 03:41:50;;;;;;;22.92;14.90;;;9.50;89.50;;;;;;5036729;28;20026;-79
2021/12/06 03:44:16;;;;;;;22.38;14.05;;;9.50;89.60;;;;;;5037738;28;20381;-79
2021/12/06 03:46:42;;;;;;;22.88;15.70;;;9.50;89.60;;;;;;5036004;28;20021;-79
2021/12/06 03:49:13;;;;;;;23.02;14.73;;;9.40;89.50;;;;;;5037363;28;20477;-79
2021/12/06 03:51:39;;;;;;;23.85;14.77;;;9.40;89.50;;;;;;5035895;28;20128;-79
2021/12/06 03:54:06;;;;;;;22.40;14.90;;;9.40;89.40;;;;;;5035947;28;20033;-80
2021/12/06 03:56:32;;;;;;;21.08;14.57;;;9.50;89.60;;;;;;5036329;28;20025;-80
2021/12/06 03:58:57;;;;;;;22.60;14.20;;;9.50;89.50;;;;;;5037103;28;20024;-81
2021/12/06 04:01:23;;;;;;;23.33;15.38;;;9.50;89.60;;;;;;5035585;28;20160;-78
2021/12/06 04:03:49;;;;;;;22.63;14.43;;;9.40;89.50;;;;;;5035902;28;20057;-79
2021/12/06 04:06:15;;;;;;;22.23;14.20;;;9.40;89.60;;;;;;5035661;28;20033;-79
2021/12/06 04:08:41;;;;;;;25.77;15.13;;;9.50;89.60;;;;;;5034896;28;20045;-80
2021/12/06 04:11:07;;;;;;;21.50;13.88;;;9.40;89.60;;;;;;5035120;28;20025;-79
2021/12/06 04:13:33;;;;;;;22.08;14.10;;;9.50;89.60;;;;;;5036299;28;20036;-79
2021/12/06 04:15:59;;;;;;;22.75;14.40;;;9.40;89.60;;;;;;5036492;28;20021;-79
2021/12/06 04:18:25;;;;;;;21.15;13.95;;;9.40;89.50;;;;;;5036586;28;20021;-79
2021/12/06 04:20:51;;;;;;;22.05;14.02;;;9.40;89.60;;;;;;5034692;28;20021;-80
2021/12/06 04:23:17;;;;;;;22.45;14.73;;;9.50;89.60;;;;;;5034652;28;20071;-80
2021/12/06 04:25:43;;;;;;;23.80;14.60;;;9.50;89.70;;;;;;5034510;28;20075;-80
2021/12/06 04:28:13;;;;;;;23.38;15.75;;;9.50;89.70;;;;;;5034552;28;20715;-79
2021/12/06 04:30:39;;;;;;;23.25;14.98;;;9.50;89.60;;;;;;5036021;28;20029;-80
2021/12/06 04:33:06;;;;;;;23.80;15.07;;;9.50;89.70;;;;;;5034489;28;20432;-80
2021/12/06 04:35:32;;;;;;;22.42;14.88;;;9.50;89.60;;;;;;5033945;28;20040;-79
2021/12/06 04:37:58;;;;;;;23.23;14.40;;;9.40;89.60;;;;;;5035332;28;20072;-80
2021/12/06 04:40:27;;;;;;;21.85;14.30;;;9.50;89.70;;;;;;5035190;28;20029;-79
2021/12/06 04:42:53;;;;;;;23.90;14.60;;;9.50;89.70;;;;;;5033946;28;20022;-79
2021/12/06 04:45:18;;;;;;;23.83;14.75;;;9.50;89.60;;;;;;5035081;28;20021;-79
2021/12/06 04:47:44;;;;;;;22.15;14.30;;;9.50;89.60;;;;;;5034058;28;20025;-79
2021/12/06 04:50:13;;;;;;;25.38;15.73;;;9.50;89.60;;;;;;5033533;28;20024;-79
2021/12/06 04:52:39;;;;;;;23.55;14.32;;;9.40;89.60;;;;;;5033507;28;20044;-79
2021/12/06 04:55:12;;;;;;;21.33;14.00;;;9.50;89.60;;;;;;5033626;28;20029;-79
2021/12/06 04:57:43;;;;;;;21.77;14.40;;;9.50;89.70;;;;;;5034940;28;20069;-79
2021/12/06 05:00:25;;;;;;;23.27;14.65;;;9.50;89.70;;;;;;5033287;28;20500;-79
2021/12/06 05:02:50;;;;;;;;;;;9.40;89.70;;;;;;5035011;28;20036;-79
2021/12/06 05:05:24;;;;;;;21.52;14.30;;;9.50;89.70;;;;;;5033380;28;19905;-79
2021/12/06 05:08:00;;;;;;;21.45;13.88;;;9.50;89.70;;;;;;5032948;28;20083;-79
2021/12/06 05:10:25;;;;;;;22.63;13.77;;;9.40;89.70;;;;;;5036448;28;20500;-81
2021/12/06 05:12:51;;;;;;;22.52;13.68;;;9.40;89.70;;;;;;5038278;28;20037;-80
2021/12/06 05:15:17;;;;;;;23.40;14.18;;;9.50;89.80;;;;;;5037650;28;20025;-80
2021/12/06 05:17:44;;;;;;;23.17;14.02;;;9.40;89.70;;;;;;5037787;28;20056;-81
2021/12/06 05:20:12;;;;;;;19.55;12.93;;;9.40;89.70;;;;;;5035960;28;20022;-80
2021/12/06 05:22:38;;;;;;;20.98;13.38;;;9.50;89.70;;;;;;5035748;28;20018;-80
2021/12/06 05:25:05;;;;;;;23.42;13.73;;;9.40;89.50;;;;;;5036068;28;20488;-82
2021/12/06 05:27:31;;;;;;;21.17;13.55;;;9.50;89.50;;;;;;5031794;28;20033;-77
2021/12/06 05:30:01;;;;;;;23.02;13.75;;;9.50;89.40;;;;;;5026254;28;20064;-79
2021/12/06 05:32:30;;;;;;;19.98;13.13;;;9.50;89.20;;;;;;5021323;28;20088;-79
2021/12/06 05:35:03;;;;;;;22.58;13.45;;;9.60;89.10;;;;;;5011073;28;20055;-81
2021/12/06 05:37:29;;;;;;;21.02;13.10;;;9.60;89.10;;;;;;5012502;28;20087;-82
2021/12/06 05:39:55;;;;;;;21.40;13.50;;;9.60;89.00;;;;;;5011273;28;20496;-81
2021/12/06 05:42:22;;;;;;;20.88;13.45;;;9.60;89.00;;;;;;5017805;28;20032;-79
2021/12/06 05:44:48;;;;;;;20.25;13.50;;;9.60;88.90;;;;;;5030138;28;20057;-80
2021/12/06 05:47:14;;;;;;;20.30;13.25;;;9.60;88.80;;;;;;5047181;28;20030;-79
2021/12/06 05:49:40;;;;;;;20.10;12.60;;;9.60;88.80;;;;;;5050704;28;20032;-79
2021/12/06 05:52:05;;;;;;;21.63;12.85;;;9.60;88.80;;;;;;5050624;28;20032;-82
2021/12/06 05:54:32;;;;;;;21.35;13.05;;;9.60;88.70;;;;;;5051043;28;20118;-79
2021/12/06 05:56:59;;;;;;;20.85;13.32;;;9.60;88.70;;;;;;5049872;28;20399;-79
2021/12/06 05:59:24;;;;;;;20.27;12.60;;;9.60;88.70;;;;;;5049828;28;20028;-77
2021/12/06 06:01:53;;;;;;;19.90;12.35;;;9.60;88.70;;;;;;5047520;28;20226;-75
2021/12/06 06:04:19;;;;;;;20.25;12.63;;;9.60;88.70;;;;;;5032162;28;20051;-78
2021/12/06 06:06:45;;;;;;;19.67;12.52;;;9.60;88.60;;;;;;5028305;28;20038;-78
2021/12/06 06:09:10;;;;;;;19.25;12.45;;;9.60;88.70;;;;;;5028803;28;20025;-77
2021/12/06 06:11:36;;;;;;;19.80;12.80;;;9.60;88.60;;;;;;5028232;28;20155;-76
2021/12/06 06:14:06;;;;;;;19.70;12.15;;;9.60;88.60;;;;;;5027858;28;20029;-78
2021/12/06 06:16:36;;;;;;;20.33;12.10;;;9.60;88.70;;;;;;5028193;28;20456;-78
2021/12/06 06:19:04;;;;;;;20.40;12.55;;;9.60;89.20;;;;;;5009676;28;20440;-76
2021/12/06 06:21:29;;;;;;;19.98;12.57;;;9.60;88.90;;;;;;5008412;28;20026;-78
2021/12/06 06:23:55;;;;;;;19.65;12.20;;;9.50;89.10;;;;;;5010606;28;20440;-78
2021/12/06 06:26:21;;;;;;;20.63;12.40;;;9.50;89.40;;;;;;5010496;28;20456;-78
2021/12/06 06:28:47;;;;;;;21.55;12.50;;;9.50;89.60;;;;;;5009390;28;20030;-80
2021/12/06 06:31:12;;;;;;;23.33;12.00;;;9.50;89.60;;;;;;5010536;28;20034;-78
2021/12/06 06:33:38;;;;;;;24.33;12.25;;;9.50;89.40;;;;;;5010794;28;20445;-81
2021/12/06 06:36:04;;;;;;;21.98;12.38;;;9.50;89.60;;;;;;5010842;28;20080;-78
2021/12/06 06:38:29;;;;;;;23.50;12.65;;;9.50;89.70;;;;;;5024008;28;20079;-78
2021/12/06 06:40:55;;;;;;;21.15;12.32;;;9.40;89.70;;;;;;5018574;28;20029;-77
2021/12/06 06:43:21;;;;;;;21.30;12.52;;;9.50;89.80;;;;;;5019366;28;20018;-80
2021/12/06 06:45:47;;;;;;;21.88;13.10;;;9.40;89.80;;;;;;5019745;28;20033;-81
2021/12/06 06:48:13;;;;;;;20.63;12.63;;;9.40;89.80;;;;;;5017362;28;20405;-79
2021/12/06 06:50:38;;;;;;;21.58;12.35;;;9.40;89.80;;;;;;5010056;28;20030;-80
2021/12/06 06:53:05;;;;;;;19.70;11.77;;;9.40;89.80;;;;;;5009620;28;20049;-81
2021/12/06 06:55:31;;;;;;;20.63;12.88;;;9.40;89.80;;;;;;5010265;28;20022;-80
2021/12/06 06:57:57;;;;;;;18.85;10.98;;;9.40;90.00;;;;;;5014652;28;20032;-80
2021/12/06 07:00:33;;;;;;;20.80;12.13;;;9.40;90.00;;;;;;5030831;28;20115;-80
2021/12/06 07:03:00;;;;;;;20.85;12.60;;;9.40;89.90;;;;;;5016274;28;20059;-80
2021/12/06 07:05:26;;;;;;;19.98;12.25;;;9.40;89.90;;;;;;5021372;28;20022;-76
2021/12/06 07:07:52;;;;;;;20.58;12.38;;;9.40;90.00;;;;;;5032892;28;20627;-80
2021/12/06 07:10:17;;;;;;;19.83;12.80;;;9.40;90.00;;;;;;5031339;28;20423;-80
2021/12/06 07:12:46;;;;;;;21.17;12.48;;;9.40;90.00;;;;;;5031161;28;20028;-82
2021/12/06 07:15:15;;;;;;;21.92;12.45;;;9.40;90.00;;;;;;5030306;28;20030;-80
2021/12/06 07:17:42;;;;;;;21.63;12.52;;;9.40;90.00;;;;;;5030889;28;20021;-80
2021/12/06 07:20:10;;;;;;;20.30;12.23;;;9.40;89.90;;;;;;5031998;28;20028;-80
2021/12/06 07:22:36;;;;;;;20.23;11.98;;;9.40;90.00;;;;;;5030579;28;20036;-81
2021/12/06 07:25:03;;;;;;;21.30;12.90;;;9.40;90.00;;;;;;5031741;28;20029;-78
2021/12/06 07:27:29;;;;;;;20.50;12.52;;;9.40;90.00;;;;;;5028309;28;20543;-81
2021/12/06 07:29:54;;;;;;;21.50;12.48;;;9.40;89.70;;;;;;5022367;28;20038;-82
2021/12/06 07:32:20;;;;;;;21.80;12.38;;;9.40;89.70;;;;;;5021948;28;20477;-80
2021/12/06 07:34:47;;;;;;;23.85;12.77;;;9.40;89.80;;;;;;5014145;28;20044;-80
2021/12/06 07:37:13;;;;;;;21.73;13.70;;;9.40;89.80;;;;;;5011155;28;20026;-78
2021/12/06 07:39:38;;;;;;;20.42;13.32;;;9.40;89.80;;;;;;5010065;28;20521;-78
2021/12/06 07:42:04;;;;;;;21.33;13.48;;;9.40;89.90;;;;;;5009323;28;20548;-78
2021/12/06 07:44:31;;;;;;;22.83;13.55;;;9.40;89.80;;;;;;5009875;28;20080;-80
2021/12/06 07:46:56;;;;;;;21.90;14.13;;;9.40;88.90;;;;;;5010080;28;20037;-79
2021/12/06 07:49:22;;;;;;;24.63;14.60;;;9.40;87.70;;;;;;5021680;28;20033;-78
2021/12/06 07:51:48;;;;;;;25.27;14.77;;;9.40;87.00;;;;;;5029356;28;20117;-79
2021/12/06 07:54:14;;;;;;;24.55;14.80;;;9.30;86.30;;;;;;5028880;28;20033;-79
2021/12/06 07:56:41;;;;;;;24.77;14.77;;;9.30;85.90;;;;;;5030612;28;20034;-80
2021/12/06 07:59:07;;;;;;;29.30;15.68;;;9.30;85.10;;;;;;5028914;28;20435;-76
2021/12/06 08:01:32;;;;;;;26.40;15.98;;;9.30;85.10;;;;;;5027330;28;20031;-78
2021/12/06 08:04:00;;;;;;;24.50;15.32;;;9.30;84.90;;;;;;5029301;28;20029;-75
2021/12/06 08:06:26;;;;;;;27.83;14.85;;;9.30;85.20;;;;;;5029707;28;20429;-78
2021/12/06 08:08:53;;;;;;;24.20;15.20;;;9.30;85.70;;;;;;5027673;28;20026;-76
2021/12/06 08:11:21;;;;;;;23.92;14.88;;;9.30;86.30;;;;;;5027552;28;20052;-78
2021/12/06 08:13:51;;;;;;;26.05;14.43;;;9.30;86.60;;;;;;5028921;28;20036;-79
2021/12/06 08:16:19;;;;;;;28.23;14.77;;;9.30;86.40;;;;;;5027825;28;20045;-80
2021/12/06 08:18:45;;;;;;;27.50;14.45;;;9.30;86.50;;;;;;5027479;28;20087;-76
2021/12/06 08:21:13;;;;;;;27.88;14.75;;;9.30;86.70;;;;;;5029231;28;20026;-82
2021/12/06 08:23:38;;;;;;;25.50;14.15;;;9.30;86.90;;;;;;5028828;28;20056;-80
2021/12/06 08:26:07;;;;;;;26.85;15.50;;;9.30;87.10;;;;;;5029894;28;20500;-79
2021/12/06 08:28:34;;;;;;;25.10;13.55;;;9.30;87.10;;;;;;5028720;28;20029;-80
2021/12/06 08:31:01;;;;;;;24.38;14.43;;;9.30;87.30;;;;;;5029035;28;20025;-77
2021/12/06 08:33:27;;;;;;;26.77;15.27;;;9.30;87.40;;;;;;5027878;28;20029;-79
2021/12/06 08:35:54;;;;;;;26.55;14.18;;;9.40;87.60;;;;;;5028066;28;20424;-78
2021/12/06 08:38:24;;;;;;;24.80;14.88;;;9.30;87.60;;;;;;5029530;28;20304;-81
2021/12/06 08:40:56;;;;;;;28.15;14.57;;;9.40;87.70;;;;;;5028153;28;20032;-80
2021/12/06 08:43:22;;;;;;;26.98;14.75;;;9.30;87.70;;;;;;5028619;28;20040;-79
2021/12/06 08:45:55;;;;;;;25.20;14.02;;;9.40;87.90;;;;;;5029231;28;20038;-78
2021/12/06 08:48:27;;;;;;;24.25;13.98;;;9.30;87.90;;;;;;5028379;28;20447;-78
2021/12/06 08:50:55;;;;;;;23.27;13.43;;;9.30;87.90;;;;;;5029881;28;20410;-80
2021/12/06 08:53:21;;;;;;;24.60;13.23;;;9.40;88.00;;;;;;5030246;28;20036;-79
2021/12/06 08:55:47;;;;;;;22.58;13.55;;;9.40;88.20;;;;;;5029561;28;20056;-78
2021/12/06 08:58:13;;;;;;;25.67;14.25;;;9.40;88.20;;;;;;5027292;28;20145;-78
2021/12/06 09:00:39;;;;;;;23.88;13.60;;;9.40;88.10;;;;;;5011138;28;20489;-81
2021/12/06 09:03:05;;;;;;;22.42;13.60;;;9.40;87.70;;;;;;5010615;28;20034;-80
2021/12/06 09:05:41;;;;;;;26.63;13.85;;;9.40;87.50;;;;;;5011999;28;20032;-79
2021/12/06 09:08:08;;;;;;;23.55;13.68;;;9.40;87.30;;;;;;5011833;28;20030;-79
2021/12/06 09:10:33;;;;;;;20.38;12.90;;;9.40;87.30;;;;;;5051591;28;20025;-79
2021/12/06 09:13:00;;;;;;;21.58;13.07;;;9.40;87.30;;;;;;5052586;28;20506;-80
2021/12/06 09:15:26;;;;;;;23.50;13.75;;;9.40;87.20;;;;;;5052816;28;20021;-79
2021/12/06 09:17:53;;;;;;;24.35;14.00;;;9.30;87.10;;;;;;5052993;28;20049;-79
2021/12/06 09:20:21;;;;;;;32.75;14.55;;;9.40;87.20;;;;;;5054818;28;20022;-79
2021/12/06 09:22:48;;;;;;;35.92;14.85;;;9.40;87.40;;;;;;5052745;28;20074;-79
2021/12/06 09:25:15;;;;;;;33.50;14.40;;;9.40;87.50;;;;;;5053022;28;20278;-79
2021/12/06 09:27:42;;;;;;;32.35;14.95;;;9.40;87.70;;;;;;5053630;28;20059;-79
2021/12/06 09:30:11;;;;;;;31.75;13.73;;;9.40;87.80;;;;;;5053095;28;20029;-80
2021/12/06 09:32:38;;;;;;;29.02;14.15;;;9.40;87.90;;;;;;5054790;28;20120;-81
2021/12/06 09:35:04;;;;;;;28.88;13.57;;;9.40;88.00;;;;;;5057216;28;20021;-80
2021/12/06 09:37:30;;;;;;;32.63;15.45;;;9.40;88.00;;;;;;5056170;28;20503;-80
2021/12/06 09:39:57;;;;;;;27.40;14.20;;;9.40;88.00;;;;;;5055740;28;20033;-80
2021/12/06 09:42:23;;;;;;;27.58;13.32;;;9.40;88.00;;;;;;5057042;28;20021;-79
2021/12/06 09:44:48;;;;;;;26.85;14.30;;;9.40;88.10;;;;;;5055615;28;20028;-80
2021/12/06 09:47:14;;;;;;;29.73;14.35;;;9.40;88.20;;;;;;5055167;28;20028;-79
2021/12/06 09:49:39;;;;;;;27.20;14.43;;;9.40;88.30;;;;;;5056308;28;20070;-80
2021/12/06 09:52:07;;;;;;;24.85;13.57;;;9.40;88.30;;;;;;5054682;28;20025;-79
2021/12/06 09:54:36;;;;;;;23.80;13.38;;;9.40;88.30;;;;;;5055988;28;20021;-79
2021/12/06 09:57:04;;;;;;;29.27;14.23;;;9.40;88.40;;;;;;5055165;28;20197;-80
2021/12/06 09:59:31;;;;;;;25.20;13.88;;;9.40;88.40;;;;;;5055141;28;20085;-81
2021/12/06 10:02:08;;;;;;;26.15;14.80;;;9.40;88.40;;;;;;5054205;28;20021;-81
2021/12/06 10:04:38;;;;;;;22.58;13.85;;;9.40;88.40;;;;;;5053989;28;20183;-79
2021/12/06 10:07:09;;;;;;;23.90;14.43;;;9.40;88.50;;;;;;5055296;28;20083;-80
2021/12/06 10:09:36;;;;;;;26.92;16.38;;;9.40;88.40;;;;;;5053408;28;20069;-79
2021/12/06 10:12:02;;;;;;;25.45;14.38;;;9.50;88.50;;;;;;5053390;28;20567;-80
2021/12/06 10:14:28;;;;;;;24.10;14.68;;;9.50;88.30;;;;;;5053562;28;20484;-80
2021/12/06 10:16:54;;;;;;;25.85;15.18;;;9.50;88.20;;;;;;5054759;28;20101;-78
2021/12/06 10:19:21;;;;;;;27.42;15.40;;;9.50;88.20;;;;;;5054491;28;20456;-79
2021/12/06 10:21:47;;;;;;;24.80;15.25;;;9.50;88.10;;;;;;5053385;28;20075;-79
2021/12/06 10:24:18;;;;;;;26.58;14.38;;;9.50;88.00;;;;;;5052674;28;20025;-79
2021/12/06 10:26:43;;;;;;;24.52;15.15;;;9.50;88.00;;;;;;5054502;28;20032;-79
2021/12/06 10:29:21;;;;;;;23.50;14.18;;;9.60;88.10;;;;;;5052488;28;20029;-79
2021/12/06 10:31:50;;;;;;;24.95;15.48;;;9.60;88.10;;;;;;5054179;28;20142;-79
2021/12/06 10:34:18;;;;;;;22.92;14.10;;;9.60;88.10;;;;;;5053555;28;20656;-79
2021/12/06 10:36:44;;;;;;;23.02;14.65;;;9.60;88.10;;;;;;5053571;28;20032;-79
2021/12/06 10:39:10;;;;;;;23.38;14.80;;;9.60;88.10;;;;;;5052225;28;20071;-79
2021/12/06 10:41:37;;;;;;;23.05;14.50;;;9.60;88.00;;;;;;5053514;28;20084;-79
2021/12/06 10:44:10;;;;;;;23.58;14.60;;;9.60;88.00;;;;;;5053079;28;20025;-79
2021/12/06 10:46:38;;;;;;;24.75;15.45;;;9.60;88.00;;;;;;5053437;28;20055;-80
2021/12/06 10:49:06;;;;;;;23.85;14.68;;;9.60;87.90;;;;;;5051732;28;20029;-79
2021/12/06 10:51:32;;;;;;;23.17;15.13;;;9.60;88.00;;;;;;5051704;28;20031;-79
2021/12/06 10:54:07;;;;;;;23.63;14.65;;;9.60;88.00;;;;;;5052811;28;20103;-79
2021/12/06 10:56:43;;;;;;;22.98;15.45;;;9.60;87.90;;;;;;5053107;28;20017;-79
2021/12/06 10:59:37;;;;;;;22.92;14.35;;;9.60;87.90;;;;;;5051712;28;20052;-79
2021/12/06 11:02:06;;;;;;;22.60;14.43;;;9.60;87.90;;;;;;5048615;28;20034;-79
2021/12/06 11:04:32;;;;;;;23.67;14.00;;;9.70;88.00;;;;;;5050940;28;20025;-79
2021/12/06 11:07:06;;;;;;;22.75;14.60;;;9.70;88.00;;;;;;5051308;28;20025;-79
2021/12/06 11:09:35;;;;;;;22.17;15.18;;;9.70;87.90;;;;;;5052374;28;20104;-79
2021/12/06 11:12:03;;;;;;;23.75;13.88;;;9.70;87.70;;;;;;5051302;28;20155;-79
2021/12/06 11:14:32;;;;;;;20.13;13.35;;;9.80;87.50;;;;;;5051166;28;20036;-79
2021/12/06 11:17:07;;;;;;;19.63;12.88;;;9.90;87.10;;;;;;5051100;28;20029;-78
2021/12/06 11:19:34;;;;;;;21.08;13.45;;;10.00;86.80;;;;;;5050878;28;20159;-79
2021/12/06 11:22:03;;;;;;;20.25;13.48;;;10.00;86.30;;;;;;5052110;28;20025;-79
2021/12/06 11:24:43;;;;;;;23.33;13.93;;;10.10;86.00;;;;;;5052647;28;20029;-79
2021/12/06 11:27:11;;;;;;;22.02;14.38;;;10.20;85.80;;;;;;5050733;28;20056;-80
2021/12/06 11:29:38;;;;;;;21.25;13.88;;;10.20;85.40;;;;;;5052050;28;20017;-79
2021/12/06 11:32:13;;;;;;;21.08;13.48;;;10.30;85.20;;;;;;5050672;28;20048;-79
2021/12/06 11:34:48;;;;;;;21.77;13.75;;;10.30;85.10;;;;;;5051633;28;20033;-80
2021/12/06 11:37:25;;;;;;;19.48;13.25;;;10.30;85.10;;;;;;5054578;28;20032;-80
2021/12/06 11:40:10;;;;;;;20.60;14.45;;;10.30;85.10;;;;;;5054111;28;20048;-80
2021/12/06 11:42:56;;;;;;;20.55;13.40;;;10.30;85.10;;;;;;5055612;28;20120;-80
2021/12/06 11:45:50;;;;;;;19.70;12.93;;;10.30;85.00;;;;;;5054368;28;20021;-80
2021/12/06 11:48:26;;;;;;;21.23;13.48;;;10.30;84.90;;;;;;5058243;28;20017;-80
2021/12/06 11:51:00;;;;;;;23.42;14.27;;;10.30;84.90;;;;;;5057229;28;20055;-79
2021/12/06 11:53:48;;;;;;;19.13;12.85;;;10.30;85.00;;;;;;5057439;28;20087;-80
2021/12/06 11:56:22;;;;;;;19.70;13.02;;;10.30;85.00;;;;;;5056804;28;20028;-79
2021/12/06 11:58:55;;;;;;;20.88;13.60;;;10.30;85.10;;;;;;5056109;28;20025;-78
2021/12/06 12:01:38;;;;;;;18.60;13.25;;;10.30;85.00;;;;;;5057093;28;20028;-79
2021/12/06 12:04:11;;;;;;;18.42;12.57;;;10.40;85.00;;;;;;5056703;28;20025;-78
2021/12/06 12:06:39;;;;;;;20.25;13.00;;;10.30;84.90;;;;;;5056066;28;20622;-79
2021/12/06 12:09:25;;;;;;;18.58;12.75;;;10.40;85.00;;;;;;5057159;28;20021;-79
2021/12/06 12:12:24;;;;;;;17.55;11.82;;;10.40;85.00;;;;;;5042277;28;20539;-79
2021/12/06 12:14:55;;;;;;;19.13;13.23;;;10.40;85.00;;;;;;5020408;28;20041;-78
2021/12/06 12:17:20;;;;;;;20.35;13.63;;;10.40;85.00;;;;;;5034139;28;20022;-80
2021/12/06 12:19:49;;;;;;;18.83;12.50;;;10.40;85.00;;;;;;5035953;28;20391;-79
2021/12/06 12:22:16;;;;;;;19.20;13.02;;;10.40;85.10;;;;;;5035375;28;20021;-79
2021/12/06 12:24:45;;;;;;;19.55;12.80;;;10.40;85.10;;;;;;5036644;28;20397;-79
2021/12/06 12:27:31;;;;;;;18.77;12.77;;;10.40;85.10;;;;;;5035219;28;20026;-79
2021/12/06 12:29:59;;;;;;;18.48;12.30;;;10.50;84.80;;;;;;5036463;28;20022;-79
2021/12/06 12:32:26;;;;;;;19.08;12.35;;;10.60;84.70;;;;;;5036515;28;20030;-79
2021/12/06 12:34:54;;;;;;;18.50;12.20;;;10.60;84.50;;;;;;5034644;28;20041;-80
2021/12/06 12:37:22;;;;;;;17.83;12.15;;;10.60;84.40;;;;;;5034572;28;20437;-80
2021/12/06 12:40:04;;;;;;;19.95;12.40;;;10.60;84.40;;;;;;5034466;28;20018;-79
2021/12/06 12:42:29;;;;;;;17.65;11.98;;;10.60;84.30;;;;;;5036245;28;20028;-79
2021/12/06 12:44:59;;;;;;;19.45;12.60;;;10.70;84.20;;;;;;5034671;28;20022;-79
2021/12/06 12:47:27;;;;;;;20.45;12.70;;;10.70;84.20;;;;;;5035861;28;20823;-79
2021/12/06 12:50:00;;;;;;;19.73;12.82;;;10.70;84.10;;;;;;5036670;28;20045;-80
2021/12/06 12:52:48;;;;;;;21.73;13.73;;;10.70;84.20;;;;;;5038385;28;20036;-80